Time;durP1;ratioP1;P1;durP2;ratioP2;P2;SDS_P1;SDS_P2;PMS_P1;PMS_P2;Temp;Humidity;BMP_temperature;BMP_pressure;BME280_temperature;BME280_humidity;BME280_pressure;Samples;Min_cycle;Max_cycle;Signal;HPM_P1;HPM_P2
2023/10/17 00:01:44;;;;;;;;;;;;;;;;;;4987686;28;90182;-70
2023/10/17 00:06:44;;;;;;;;;;;;;;;;;;4987262;28;89477;-72
2023/10/17 00:09:10;;;;;;;;;;;;;;;;;;4986474;28;89345;-71
2023/10/17 00:14:19;;;;;;;;;;;;;;;;;;4987104;28;89485;-71
2023/10/17 00:16:44;;;;;;;;;;;;;;;;;;4987093;28;89332;-72
2023/10/17 00:19:10;;;;;;;;;;;;;;;;;;4971189;28;90231;-71
2023/10/17 00:21:36;;;;;;;;;;;;;;;;;;4989821;28;89469;-71
2023/10/17 00:24:08;;;;;;;;;;;;;;;;;;4987029;28;90471;-72
2023/10/17 00:26:33;;;;;;;;;;;;;;;;;;4987380;28;89551;-71
2023/10/17 00:28:58;;;;;;;;;;;;;;;;;;4984604;28;92530;-70
2023/10/17 00:31:24;;;;;;;;;;;;;;;;;;4985875;28;89786;-73
2023/10/17 00:33:58;;;;;;;;;;;;;;;;;;4986563;28;91291;-73
2023/10/17 00:36:26;;;;;;;;;;;;;;;;;;4987015;28;89743;-71
2023/10/17 00:38:53;;;;;;;;;;;;;;;;;;4985276;28;89133;-73
2023/10/17 00:41:29;;;;;;;;;;;;;;;;;;4986489;28;89650;-71
2023/10/17 00:43:54;;;;;;;;;;;;;;;;;;4989718;28;89592;-72
2023/10/17 00:46:19;;;;;;;;;;;;;;;;;;4986997;28;88946;-72
2023/10/17 00:48:47;;;;;;;;;;;;;;;;;;4986977;28;89289;-73
2023/10/17 00:51:17;;;;;;;;;;;;;;;;;;4986519;28;89461;-71
2023/10/17 00:53:43;;;;;;;;;;;;;;;;;;4986987;28;89631;-73
2023/10/17 00:56:08;;;;;;;;;;;;;;;;;;4986455;28;90169;-72
2023/10/17 00:58:34;;;;;;;;;;;;;;;;;;4986696;28;89068;-73
2023/10/17 01:01:09;;;;;;;;;;;;;;;;;;4986318;28;90634;-73
2023/10/17 01:03:43;;;;;;;;;;;;;;;;;;4987671;28;90640;-72
2023/10/17 01:06:30;;;;;;;;;;;;;;;;;;4986064;28;90041;-73
2023/10/17 01:11:40;;;;;;;;;;;;;;;;;;4987108;28;89384;-73
2023/10/17 01:14:06;;;;;;;;;;;;;;;;;;4985389;28;91020;-73
2023/10/17 01:16:34;;;;;;;;;;;;;;;;;;4986526;28;90528;-73
2023/10/17 01:19:04;;;;;;;;;;;;;;;;;;4986040;28;89524;-74
2023/10/17 01:21:30;;;;;;;;;;;;;;;;;;4986292;28;91883;-72
2023/10/17 01:23:55;;;;;;;;;;;;;;;;;;4986822;28;89307;-73
2023/10/17 01:26:26;;;;;;;;;;;;;;;;;;4989839;28;89013;-71
2023/10/17 01:28:52;;;;;;;;;;;;;;;;;;4970682;28;91224;-71
2023/10/17 01:31:24;;;;;;;;;;;;;;;;;;4986174;28;89612;-70
2023/10/17 01:33:59;;;;;;;;;;;;;;;;;;4985980;28;89713;-71
2023/10/17 01:36:24;;;;;;;;;;;;;;;;;;4972019;28;91016;-72
2023/10/17 01:38:50;;;;;;;;;;;;;;;;;;4986004;28;89434;-72
2023/10/17 01:41:18;;;;;;;;;;;;;;;;;;4985401;28;90609;-71
2023/10/17 01:43:45;;;;;;;;;;;;;;;;;;4985391;28;89675;-72
2023/10/17 01:46:15;;;;;;;;;;;;;;;;;;4986137;28;90523;-70
2023/10/17 01:48:44;;;;;;;;;;;;;;;;;;4988427;28;89456;-70
2023/10/17 01:51:12;;;;;;;;;;;;;;;;;;4986187;28;90002;-70
2023/10/17 01:53:39;;;;;;;;;;;;;;;;;;4985178;28;91538;-70
2023/10/17 01:56:13;;;;;;;;;;;;;;;;;;4976401;28;91927;-71
2023/10/17 01:58:38;;;;;;;;;;;;;;;;;;4984658;28;89306;-70
2023/10/17 02:01:11;;;;;;;;;;;;;;;;;;4985393;28;89460;-70
2023/10/17 02:03:37;;;;;;;;;;;;;;;;;;4985756;28;90404;-70
2023/10/17 02:06:05;;;;;;;;;;;;;;;;;;4985610;28;89821;-71
2023/10/17 02:08:32;;;;;;;;;;;;;;;;;;4965185;28;92550;-73
2023/10/17 02:10:57;;;;;;;;;;;;;;;;;;4988378;28;91228;-71
2023/10/17 02:13:23;;;;;;;;;;;;;;;;;;4986345;28;89848;-69
2023/10/17 02:15:50;;;;;;;;;;;;;;;;;;4986134;28;90237;-71
2023/10/17 02:18:16;;;;;;;;;;;;;;;;;;4986277;28;89633;-71
2023/10/17 02:20:47;;;;;;;;;;;;;;;;;;4981461;28;89725;-70
2023/10/17 02:23:19;;;;;;;;;;;;;;;;;;4981374;28;89165;-69
2023/10/17 02:25:44;;;;;;;;;;;;;;;;;;4975600;28;90536;-71
2023/10/17 02:28:10;;;;;;;;;;;;;;;;;;4983981;28;89726;-71
2023/10/17 02:30:35;;;;;;;;;;;;;;;;;;4982506;28;89558;-72
2023/10/17 02:33:05;;;;;;;;;;;;;;;;;;4974125;28;90806;-71
2023/10/17 02:35:40;;;;;;;;;;;;;;;;;;4984171;28;90107;-71
2023/10/17 02:38:06;;;;;;;;;;;;;;;;;;4983142;28;90456;-70
2023/10/17 02:40:34;;;;;;;;;;;;;;;;;;4983587;28;89414;-69
2023/10/17 02:43:02;;;;;;;;;;;;;;;;;;4965685;28;92523;-71
2023/10/17 02:45:27;;;;;;;;;;;;;;;;;;4983727;28;89564;-73
2023/10/17 02:47:56;;;;;;;;;;;;;;;;;;4972191;28;89818;-72
2023/10/17 02:53:12;;;;;;;;;;;;;;;;;;4978941;28;91696;-71
2023/10/17 02:55:37;;;;;;;;;;;;;;;;;;4990129;28;90391;-72
2023/10/17 02:58:02;;;;;;;;;;;;;;;;;;4986238;28;89364;-72
2023/10/17 03:00:34;;;;;;;;;;;;;;;;;;4986854;28;91044;-73
2023/10/17 03:03:00;;;;;;;;;;;;;;;;;;4970247;28;92026;-72
2023/10/17 03:05:27;;;;;;;;;;;;;;;;;;4987380;28;89892;-73
2023/10/17 03:07:52;;;;;;;;;;;;;;;;;;4987322;28;89466;-72
2023/10/17 03:10:37;;;;;;;;;;;;;;;;;;4987356;28;89648;-73
2023/10/17 03:13:05;;;;;;;;;;;;;;;;;;4987122;28;89556;-71
2023/10/17 03:15:30;;;;;;;;;;;;;;;;;;4990269;28;90609;-72
2023/10/17 03:18:00;;;;;;;;;;;;;;;;;;4987321;28;89700;-71
2023/10/17 03:20:36;;;;;;;;;;;;;;;;;;4968795;28;91006;-72
2023/10/17 03:23:03;;;;;;;;;;;;;;;;;;4983235;28;89155;-70
2023/10/17 03:25:36;;;;;;;;;;;;;;;;;;4986531;28;89883;-70
2023/10/17 03:28:04;;;;;;;;;;;;;;;;;;4987723;28;90686;-72
2023/10/17 03:30:29;;;;;;;;;;;;;;;;;;4988431;28;89771;-71
2023/10/17 03:35:26;;;;;;;;;;;;;;;;;;4984493;28;89836;-69
2023/10/17 03:37:55;;;;;;;;;;;;;;;;;;4980466;28;91949;-72
2023/10/17 03:42:55;;;;;;;;;;;;;;;;;;4986618;28;89075;-71
2023/10/17 03:45:26;;;;;;;;;;;;;;;;;;4986089;28;89293;-71
2023/10/17 03:48:04;;;;;;;;;;;;;;;;;;4969096;28;93048;-71
2023/10/17 03:50:42;;;;;;;;;;;;;;;;;;4986631;28;90236;-72
2023/10/17 03:53:14;;;;;;;;;;;;;;;;;;4985200;28;90660;-72
2023/10/17 03:55:42;;;;;;;;;;;;;;;;;;4984842;28;90716;-71
2023/10/17 03:58:18;;;;;;;;;;;;;;;;;;4985393;28;89182;-70
2023/10/17 04:00:44;;;;;;;;;;;;;;;;;;4988389;28;89337;-70
2023/10/17 04:03:18;;;;;;;;;;;;;;;;;;4985865;28;89826;-71
2023/10/17 04:05:44;;;;;;;;;;;;;;;;;;4985603;28;89495;-71
2023/10/17 04:08:09;;;;;;;;;;;;;;;;;;4986087;28;91102;-70
2023/10/17 04:10:49;;;;;;;;;;;;;;;;;;4985818;28;89973;-70
2023/10/17 04:13:34;;;;;;;;;;;;;;;;;;4983513;28;89161;-72
2023/10/17 04:16:00;;;;;;;;;;;;;;;;;;4983888;28;90805;-72
2023/10/17 04:18:25;;;;;;;;;;;;;;;;;;4986382;28;89398;-72
2023/10/17 04:20:58;;;;;;;;;;;;;;;;;;4986678;28;89574;-72
2023/10/17 04:23:26;;;;;;;;;;;;;;;;;;4989246;28;89373;-73
2023/10/17 04:25:55;;;;;;;;;;;;;;;;;;4985424;28;89188;-71
2023/10/17 04:28:20;;;;;;;;;;;;;;;;;;4985119;28;89486;-71
2023/10/17 04:30:48;;;;;;;;;;;;;;;;;;4986439;28;89102;-72
2023/10/17 04:33:13;;;;;;;;;;;;;;;;;;4986193;28;89523;-70
2023/10/17 04:35:59;;;;;;;;;;;;;;;;;;4986393;28;89524;-71
2023/10/17 04:38:36;;;;;;;;;;;;;;;;;;4983102;28;89540;-71
2023/10/17 04:43:49;;;;;;;;;;;;;;;;;;4986255;28;89549;-71
2023/10/17 04:46:16;;;;;;;;;;;;;;;;;;4989106;28;89662;-72
2023/10/17 04:48:46;;;;;;;;;;;;;;;;;;4986961;28;89787;-72
2023/10/17 04:53:52;;;;;;;;;;;;;;;;;;4985984;28;89232;-72
2023/10/17 04:56:40;;;;;;;;;;;;;;;;;;4985354;28;89767;-71
2023/10/17 04:59:03;;;;;;;;;;;;;;;;;;4985284;28;89963;-70
2023/10/17 05:01:52;;;;;;;;;;;;;;;;;;4985367;28;90482;-72
2023/10/17 05:04:18;;;;;;;;;;;;;;;;;;4983614;28;89489;-72
2023/10/17 06:17:40;;;;;;;;;;;;;;;;;;4986904;28;89598;-70
2023/10/17 06:20:10;;;;;;;;;;;;;;;;;;4989088;28;89793;-70
2023/10/17 06:31:54;;;;;;;;;;;;;;;;;;4919218;28;89411;-71
2023/10/17 06:34:00;;;;;;;;;;;;;;;;;;4983064;28;90811;-72
2023/10/17 06:36:28;;;;;;;;;;;;;;;;;;4991524;28;89472;-70
2023/10/17 06:38:54;;;;;;;;;;;;;;;;;;4989010;28;90819;-70
2023/10/17 06:41:30;;;;;;;;;;;;;;;;;;5003300;28;92569;-72
2023/10/17 06:43:58;;;;;;;;;;;;;;;;;;4990950;28;89011;-69
2023/10/17 06:46:30;;;;;;;;;;;;;;;;;;4988299;28;89624;-69
2023/10/17 06:49:03;;;;;;;;;;;;;;;;;;4986292;28;89323;-71
2023/10/17 06:51:36;;;;;;;;;;;;;;;;;;4987513;28;89914;-74
2023/10/17 06:54:12;;;;;;;;;;;;;;;;;;4987438;28;89060;-72
2023/10/17 06:56:41;;;;;;;;;;;;;;;;;;4987202;28;90152;-73
2023/10/17 06:59:22;;;;;;;;;;;;;;;;;;4987333;28;89353;-72
2023/10/17 07:01:52;;;;;;;;;;;;;;;;;;4985958;28;90299;-70
2023/10/17 07:04:20;;;;;;;;;;;;;;;;;;4983933;28;90240;-70
2023/10/17 07:06:47;;;;;;;;;;;;;;;;;;4988500;28;89776;-69
2023/10/17 07:09:19;;;;;;;;;;;;;;;;;;4985734;28;89921;-71
2023/10/17 07:11:47;;;;;;;;;;;;;;;;;;4986692;28;90082;-71
2023/10/17 07:14:22;;;;;;;;;;;;;;;;;;4986169;28;90151;-71
2023/10/17 07:16:48;;;;;;;;;;;;;;;;;;4970038;28;89114;-71
2023/10/17 07:24:26;;;;;;;;;;;;;;;;;;4986785;28;90151;-70
2023/10/17 07:26:54;;;;;;;;;;;;;;;;;;4984783;28;89425;-71
2023/10/17 07:29:23;;;;;;;;;;;;;;;;;;4989155;28;91850;-71
2023/10/17 07:31:55;;;;;;;;;;;;;;;;;;4986232;28;89804;-71
2023/10/17 07:34:21;;;;;;;;;;;;;;;;;;4987144;28;89161;-68
2023/10/17 07:36:55;;;;;;;;;;;;;;;;;;4985461;28;89610;-70
2023/10/17 07:39:25;;;;;;;;;;;;;;;;;;4984111;28;90281;-71
2023/10/17 07:41:53;;;;;;;;;;;;;;;;;;4985882;28;89847;-69
2023/10/17 07:44:19;;;;;;;;;;;;;;;;;;4967947;28;91601;-70
2023/10/17 07:47:07;;;;;;;;;;;;;;;;;;4985755;28;90636;-70
2023/10/17 07:49:36;;;;;;;;;;;;;;;;;;4986222;28;90215;-71
2023/10/17 07:52:10;;;;;;;;;;;;;;;;;;4985341;28;90469;-70
2023/10/17 07:54:45;;;;;;;;;;;;;;;;;;4980822;28;90299;-71
2023/10/17 07:57:17;;;;;;;;;;;;;;;;;;4982493;28;89396;-73
2023/10/17 07:59:43;;;;;;;;;;;;;;;;;;4986116;28;91046;-74
2023/10/17 08:02:19;;;;;;;;;;;;;;;;;;4985600;28;89720;-70
2023/10/17 08:04:44;;;;;;;;;;;;;;;;;;4968701;28;90415;-69
2023/10/17 08:07:13;;;;;;;;;;;;;;;;;;4985638;28;90685;-69
2023/10/17 08:09:41;;;;;;;;;;;;;;;;;;4986076;28;89466;-72
2023/10/17 08:12:08;;;;;;;;;;;;;;;;;;4989201;28;89084;-71
2023/10/17 08:14:44;;;;;;;;;;;;;;;;;;4986415;28;89421;-71
2023/10/17 08:17:10;;;;;;;;;;;;;;;;;;4972943;28;89438;-71
2023/10/17 08:22:19;;;;;;;;;;;;;;;;;;4984966;28;88906;-71
2023/10/17 08:24:51;;;;;;;;;;;;;;;;;;4986194;28;90631;-71
2023/10/17 08:29:48;;;;;;;;;;;;;;;;;;4985603;28;89504;-75
2023/10/17 08:35:36;;;;;;;;;;;;;;;;;;4975043;28;89358;-72
2023/10/17 08:37:52;;;;;;;;;;;;;;;;;;4983946;28;89156;-73
2023/10/17 08:40:54;;;;;;;;;;;;;;;;;;4985429;28;89565;-71
2023/10/17 08:43:16;;;;;;;;;;;;;;;;;;4980437;28;89976;-71
2023/10/17 08:45:43;;;;;;;;;;;;;;;;;;4984529;28;90210;-71
2023/10/17 08:48:09;;;;;;;;;;;;;;;;;;4986485;28;89763;-72
2023/10/17 08:50:40;;;;;;;;;;;;;;;;;;4984671;28;90499;-71
2023/10/17 08:53:13;;;;;;;;;;;;;;;;;;4984331;28;89561;-71
2023/10/17 08:55:40;;;;;;;;;;;;;;;;;;4984438;28;90028;-71
2023/10/17 08:58:05;;;;;;;;;;;;;;;;;;4987519;28;92076;-72
2023/10/17 09:00:49;;;;;;;;;;;;;;;;;;4984862;28;90639;-74
2023/10/17 09:03:23;;;;;;;;;;;;;;;;;;4982756;28;90031;-74
2023/10/17 09:05:58;;;;;;;;;;;;;;;;;;4959273;28;90576;-72
2023/10/17 09:08:51;;;;;;;;;;;;;;;;;;4984097;28;90420;-73
2023/10/17 09:11:29;;;;;;;;;;;;;;;;;;4983353;28;90609;-73
2023/10/17 09:14:24;;;;;;;;;;;;;;;;;;4979623;28;89375;-71
2023/10/17 09:16:50;;;;;;;;;;;;;;;;;;4984800;28;90890;-74
2023/10/17 09:19:16;;;;;;;;;;;;;;;;;;4984614;28;90292;-75
2023/10/17 09:21:46;;;;;;;;;;;;;;;;;;4985624;28;89116;-75
2023/10/17 09:24:25;;;;;;;;;;;;;;;;;;4981855;28;90472;-74
2023/10/17 09:26:51;;;;;;;;;;;;;;;;;;4983342;28;89707;-73
2023/10/17 09:29:16;;;;;;;;;;;;;;;;;;4984683;28;90538;-74
2023/10/17 09:31:45;;;;;;;;;;;;;;;;;;4981504;28;89272;-70
2023/10/17 09:34:13;;;;;;;;;;;;;;;;;;4982034;28;89488;-72
2023/10/17 09:36:38;;;;;;;;;;;;;;;;;;4986590;28;92343;-75
2023/10/17 09:39:05;;;;;;;;;;;;;;;;;;4983645;28;89424;-72
2023/10/17 09:41:32;;;;;;;;;;;;;;;;;;4983588;28;90436;-72
2023/10/17 09:43:58;;;;;;;;;;;;;;;;;;4983689;28;89105;-74
2023/10/17 09:46:27;;;;;;;;;;;;;;;;;;4985001;28;89443;-73
2023/10/17 09:48:52;;;;;;;;;;;;;;;;;;4998439;28;91296;-73
2023/10/17 09:51:22;;;;;;;;;;;;;;;;;;4966887;28;91851;-75
2023/10/17 09:53:53;;;;;;;;;;;;;;;;;;4983827;28;89596;-72
2023/10/17 09:56:21;;;;;;;;;;;;;;;;;;4980585;28;89359;-70
2023/10/17 09:58:49;;;;;;;;;;;;;;;;;;4981833;28;90779;-71
2023/10/17 10:01:14;;;;;;;;;;;;;;;;;;4984350;28;89434;-72
2023/10/17 10:03:40;;;;;;;;;;;;;;;;;;4986471;28;89481;-68
2023/10/17 10:06:32;;;;;;;;;;;;;;;;;;4983405;28;90596;-71
2023/10/17 10:09:09;;;;;;;;;;;;;;;;;;4981604;28;91244;-71
2023/10/17 10:11:47;;;;;;;;;;;;;;;;;;4981476;28;89619;-71
2023/10/17 10:14:13;;;;;;;;;;;;;;;;;;4984058;28;89078;-69
2023/10/17 10:16:46;;;;;;;;;;;;;;;;;;4983743;28;89744;-72
2023/10/17 10:19:14;;;;;;;;;;;;;;;;;;4984390;28;90261;-70
2023/10/17 10:21:55;;;;;;;;;;;;;;;;;;4983304;28;90353;-70
2023/10/17 10:24:31;;;;;;;;;;;;;;;;;;4983427;28;91011;-71
2023/10/17 10:27:14;;;;;;;;;;;;;;;;;;4981593;28;89565;-71
2023/10/17 10:29:40;;;;;;;;;;;;;;;;;;4982566;28;90485;-67
2023/10/17 10:32:08;;;;;;;;;;;;;;;;;;4983951;28;89501;-71
2023/10/17 10:34:36;;;;;;;;;;;;;;;;;;4983489;28;90548;-71
2023/10/17 10:37:07;;;;;;;;;;;;;;;;;;4983101;28;89663;-72
2023/10/17 10:39:32;;;;;;;;;;;;;;;;;;4983204;28;89731;-70
2023/10/17 10:41:59;;;;;;;;;;;;;;;;;;4983228;28;89666;-70
2023/10/17 10:44:25;;;;;;;;;;;;;;;;;;4981683;28;90195;-71
2023/10/17 10:46:52;;;;;;;;;;;;;;;;;;4983533;28;89977;-70
2023/10/17 10:49:24;;;;;;;;;;;;;;;;;;4986831;28;89600;-69
2023/10/17 10:51:50;;;;;;;;;;;;;;;;;;4982430;28;90206;-71
2023/10/17 10:54:17;;;;;;;;;;;;;;;;;;4984624;28;89290;-70
2023/10/17 10:56:49;;;;;;;;;;;;;;;;;;4983451;28;89677;-73
2023/10/17 10:59:19;;;;;;;;;;;;;;;;;;4982530;28;89222;-71
2023/10/17 11:01:47;;;;;;;;;;;;;;;;;;4981407;28;90844;-70
2023/10/17 11:04:12;;;;;;;;;;;;;;;;;;4983627;28;89069;-70
2023/10/17 11:06:38;;;;;;;;;;;;;;;;;;4981658;28;89277;-71
2023/10/17 11:09:07;;;;;;;;;;;;;;;;;;4984615;28;89004;-75
2023/10/17 11:11:42;;;;;;;;;;;;;;;;;;4987208;28;90985;-75
2023/10/17 11:14:14;;;;;;;;;;;;;;;;;;4985324;28;90665;-71
2023/10/17 11:16:39;;;;;;;;;;;;;;;;;;4986026;28;89984;-70
2023/10/17 11:19:05;;;;;;;;;;;;;;;;;;4987384;28;90280;-72
2023/10/17 11:21:31;;;;;;;;;;;;;;;;;;4987717;28;90633;-73
2023/10/17 11:24:00;;;;;;;;;;;;;;;;;;4986615;28;89315;-69
2023/10/17 11:26:28;;;;;;;;;;;;;;;;;;4987651;28;90331;-71
2023/10/17 11:28:53;;;;;;;;;;;;;;;;;;4986885;28;90426;-69
2023/10/17 11:31:22;;;;;;;;;;;;;;;;;;4987271;28;89584;-74
2023/10/17 11:34:15;;;;;;;;;;;;;;;;;;4989610;28;89178;-73
2023/10/17 11:36:47;;;;;;;;;;;;;;;;;;4985218;28;89604;-70
2023/10/17 11:39:15;;;;;;;;;;;;;;;;;;4984557;28;89605;-70
2023/10/17 11:41:57;;;;;;;;;;;;;;;;;;4985887;28;90030;-73
2023/10/17 11:44:27;;;;;;;;;;;;;;;;;;4984135;28;90866;-75
2023/10/17 11:47:01;;;;;;;;;;;;;;;;;;4985879;28;90106;-71
2023/10/17 11:49:32;;;;;;;;;;;;;;;;;;4985551;28;89885;-70
2023/10/17 11:52:13;;;;;;;;;;;;;;;;;;4984788;28;89085;-70
2023/10/17 11:55:00;;;;;;;;;;;;;;;;;;4986175;28;90444;-71
2023/10/17 11:57:27;;;;;;;;;;;;;;;;;;4986614;28;89035;-70
2023/10/17 12:00:06;;;;;;;;;;;;;;;;;;4985904;28;90156;-74
2023/10/17 12:02:32;;;;;;;;;;;;;;;;;;4986019;28;89236;-74
2023/10/17 12:04:59;;;;;;;;;;;;;;;;;;4986490;28;89607;-69
2023/10/17 12:07:24;;;;;;;;;;;;;;;;;;4966966;28;90255;-72
2023/10/17 12:09:53;;;;;;;;;;;;;;;;;;4985999;28;90078;-72
2023/10/17 12:12:19;;;;;;;;;;;;;;;;;;4985170;28;89724;-70
2023/10/17 12:14:44;;;;;;;;;;;;;;;;;;4985601;28;89683;-71
2023/10/17 12:17:13;;;;;;;;;;;;;;;;;;4986704;28;89483;-73
2023/10/17 12:19:40;;;;;;;;;;;;;;;;;;4977596;28;91714;-73
2023/10/17 12:22:05;;;;;;;;;;;;;;;;;;4965126;28;90993;-73
2023/10/17 12:24:36;;;;;;;;;;;;;;;;;;4986520;28;89534;-71
2023/10/17 12:27:02;;;;;;;;;;;;;;;;;;4985157;28;90675;-73
2023/10/17 12:29:28;;;;;;;;;;;;;;;;;;4986101;28;89695;-72
2023/10/17 12:31:54;;;;;;;;;;;;;;;;;;4982975;28;91669;-70
2023/10/17 12:34:20;;;;;;;;;;;;;;;;;;4985363;28;90597;-72
2023/10/17 12:36:46;;;;;;;;;;;;;;;;;;4986037;28;89404;-71
2023/10/17 12:39:11;;;;;;;;;;;;;;;;;;4989216;28;90577;-70
2023/10/17 12:41:37;;;;;;;;;;;;;;;;;;4986328;28;89345;-69
2023/10/17 12:44:02;;;;;;;;;;;;;;;;;;4986046;28;90130;-69
2023/10/17 12:46:27;;;;;;;;;;;;;;;;;;4985975;28;90005;-69
2023/10/17 12:48:53;;;;;;;;;;;;;;;;;;4986748;28;89457;-72
2023/10/17 12:51:20;;;;;;;;;;;;;;;;;;4985438;28;91005;-63
2023/10/17 12:53:46;;;;;;;;;;;;;;;;;;4985502;28;89999;-61
2023/10/17 12:56:11;;;;;;;;;;;;;;;;;;5000621;28;89855;-63
2023/10/17 12:58:36;;;;;;;;;;;;;;;;;;4986143;28;90516;-65
2023/10/17 13:01:05;;;;;;;;;;;;;;;;;;4988882;28;89428;-64
2023/10/17 13:03:38;;;;;;;;;;;;;;;;;;4986008;28;90669;-64
2023/10/17 13:06:04;;;;;;;;;;;;;;;;;;4986263;28;90204;-61
2023/10/17 13:08:29;;;;;;;;;;;;;;;;;;4984293;28;89823;-63
2023/10/17 13:10:55;;;;;;;;;;;;;;;;;;4986469;28;90406;-62
2023/10/17 13:13:20;;;;;;;;;;;;;;;;;;4982391;28;90571;-60
2023/10/17 13:15:46;;;;;;;;;;;;;;;;;;4983390;28;89687;-60
2023/10/17 13:18:12;;;;;;;;;;;;;;;;;;4983864;28;89542;-61
2023/10/17 13:20:38;;;;;;;;;;;;;;;;;;4984075;28;89326;-64
2023/10/17 13:23:03;;;;;;;;;;;;;;;;;;4986796;28;89720;-62
2023/10/17 13:25:36;;;;;;;;;;;;;;;;;;4985434;28;89500;-60
2023/10/17 13:28:02;;;;;;;;;;;;;;;;;;4984279;28;90627;-63
2023/10/17 13:30:28;;;;;;;;;;;;;;;;;;4984431;28;90494;-62
2023/10/17 13:32:53;;;;;;;;;;;;;;;;;;4982265;28;89740;-64
2023/10/17 13:35:20;;;;;;;;;;;;;;;;;;3228434;28;10000367;-59
2023/10/17 13:37:51;;;;;;;;;;;;;;;;;;4986754;28;89728;-60
2023/10/17 13:40:16;;;;;;;;;;;;;;;;;;4984657;28;90237;-63
2023/10/17 13:42:41;;;;;;;;;;;;;;;;;;4098664;28;10089434;-63
2023/10/17 13:45:07;;;;;;;;;;;;;;;;;;4982694;28;89727;-64
2023/10/17 13:47:32;;;;;;;;;;;;;;;;;;4101425;28;10000457;-63
2023/10/17 13:49:58;;;;;;;;;;;;;;;;;;4981691;28;89585;-63
2023/10/17 13:52:24;;;;;;;;;;;;;;;;;;4982690;28;89398;-63
2023/10/17 13:54:50;;;;;;;;;;;;;;;;;;4982723;28;89587;-62
2023/10/17 13:57:16;;;;;;;;;;;;;;;;;;4967102;28;90758;-62
2023/10/17 13:59:47;;;;;;;;;;;;;;;;;;4983385;28;89828;-67
2023/10/17 14:02:15;;;;;;;;;;;;;;;;;;4979849;28;89479;-62
2023/10/17 14:04:41;;;;;;;;;;;;;;;;;;4100868;28;10000567;-61
2023/10/17 14:07:11;;;;;;;;;;;;;;;;;;3797890;28;10000954;-61
2023/10/17 14:09:39;;;;;;;;;;;;;;;;;;4459940;28;10000725;-60
2023/10/17 14:12:04;;;;;;;;;;;;;;;;;;4984556;28;89385;-61
2023/10/17 14:14:30;;;;;;;;;;;;;;;;;;4983801;28;92149;-60
2023/10/17 14:16:58;;;;;;;;;;;;;;;;;;4983945;28;90734;-62
2023/10/17 14:27:22;;;;;;;;;;;;;;;;;;4984399;28;89591;-61
2023/10/17 14:29:48;;;;;;;;;;;;;;;;;;4985802;28;91232;-62
2023/10/17 14:32:17;;;;;;;;;;;;;;;;;;4982338;28;89232;-64
2023/10/17 14:34:43;;;;;;;;;;;;;;;;;;4983443;28;90617;-61
2023/10/17 14:37:08;;;;;;;;;;;;;;;;;;4984599;28;90210;-61
2023/10/17 14:39:33;;;;;;;;;;;;;;;;;;4984517;28;90479;-61
2023/10/17 14:41:59;;;;;;;;;;;;;;;;;;4099542;28;10000848;-63
2023/10/17 14:44:24;;;;;;;;;;;;;;;;;;4979823;28;89348;-62
2023/10/17 14:46:52;;;;;;;;;;;;;;;;;;4099442;28;10000331;-60
2023/10/17 14:49:18;;;;;;;;;;;;;;;;;;2345644;28;10001336;-60
2023/10/17 14:51:43;;;;;;;;;;;;;;;;;;4989613;28;89469;-61
2023/10/17 14:54:09;;;;;;;;;;;;;;;;;;5002494;28;89850;-59
2023/10/17 14:56:36;;;;;;;;;;;;;;;;;;4985681;28;89073;-61
2023/10/17 14:59:01;;;;;;;;;;;;;;;;;;4987382;28;90829;-62
2023/10/17 15:01:26;;;;;;;;;;;;;;;;;;4985434;28;89480;-62
2023/10/17 15:03:52;;;;;;;;;;;;;;;;;;4986600;28;89932;-60
2023/10/17 15:06:17;;;;;;;;;;;;;;;;;;4100849;28;10000230;-61
2023/10/17 15:08:43;;;;;;;;;;;;;;;;;;4983781;28;89782;-61
2023/10/17 15:11:10;;;;;;;;;;;;;;;;;;4985367;28;89210;-61
2023/10/17 15:13:36;;;;;;;;;;;;;;;;;;4990115;28;89335;-60
2023/10/17 15:16:02;;;;;;;;;;;;;;;;;;4987380;28;89862;-63
2023/10/17 15:18:28;;;;;;;;;;;;;;;;;;4983991;28;89571;-60
2023/10/17 15:21:02;;;;;;;;;;;;;;;;;;4984330;28;91256;-62
2023/10/17 15:23:27;;;;;;;;;;;;;;;;;;4982654;28;90163;-62
2023/10/17 15:25:56;;;;;;;;;;;;;;;;;;4986502;28;90031;-60
2023/10/17 15:28:21;;;;;;;;;;;;;;;;;;4986684;28;89856;-64
2023/10/17 15:30:46;;;;;;;;;;;;;;;;;;4986506;28;89095;-60
2023/10/17 15:33:12;;;;;;;;;;;;;;;;;;4985101;28;90408;-63
2023/10/17 15:35:38;;;;;;;;;;;;;;;;;;4989503;28;90815;-62
2023/10/17 15:38:03;;;;;;;;;;;;;;;;;;4986093;28;89500;-59
2023/10/17 15:40:28;;;;;;;;;;;;;;;;;;4987579;28;89580;-62
2023/10/17 15:42:54;;;;;;;;;;;;;;;;;;4986236;28;89376;-63
2023/10/17 15:45:19;;;;;;;;;;;;;;;;;;4983637;28;90264;-60
2023/10/17 15:47:45;;;;;;;;;;;;;;;;;;4986309;28;90668;-62
2023/10/17 15:50:17;;;;;;;;;;;;;;;;;;4985414;28;90713;-62
2023/10/17 15:52:45;;;;;;;;;;;;;;;;;;4985901;28;89617;-63
2023/10/17 15:55:10;;;;;;;;;;;;;;;;;;4985346;28;91231;-61
2023/10/17 15:57:37;;;;;;;;;;;;;;;;;;4682307;28;9999795;-60
2023/10/17 16:00:15;;;;;;;;;;;;;;;;;;1055025;28;10001011;-60
2023/10/17 16:02:41;;;;;;;;;;;;;;;;;;3237185;28;10000583;-60
2023/10/17 16:05:10;;;;;;;;;;;;;;;;;;4987585;28;89570;-60
2023/10/17 16:07:37;;;;;;;;;;;;;;;;;;4985664;28;90796;-61
2023/10/17 16:10:02;;;;;;;;;;;;;;;;;;4983445;28;90532;-60
2023/10/17 16:12:28;;;;;;;;;;;;;;;;;;4970085;28;91582;-60
2023/10/17 16:14:53;;;;;;;;;;;;;;;;;;4982768;28;89820;-60
2023/10/17 16:17:18;;;;;;;;;;;;;;;;;;4981693;28;90113;-61
2023/10/17 16:19:44;;;;;;;;;;;;;;;;;;4985137;28;89633;-62
2023/10/17 16:22:09;;;;;;;;;;;;;;;;;;4981865;28;90749;-62
2023/10/17 16:24:35;;;;;;;;;;;;;;;;;;4983478;28;89210;-60
2023/10/17 16:27:01;;;;;;;;;;;;;;;;;;4983289;28;90359;-62
2023/10/17 16:29:26;;;;;;;;;;;;;;;;;;4983502;28;91234;-63
2023/10/17 16:31:53;;;;;;;;;;;;;;;;;;4982889;28;89728;-61
2023/10/17 16:34:19;;;;;;;;;;;;;;;;;;4984500;28;89965;-62
2023/10/17 16:36:45;;;;;;;;;;;;;;;;;;4980900;28;90249;-61
2023/10/17 16:39:10;;;;;;;;;;;;;;;;;;4980488;28;89481;-61
2023/10/17 16:41:35;;;;;;;;;;;;;;;;;;4984692;28;90062;-60
2023/10/17 16:44:02;;;;;;;;;;;;;;;;;;4984523;28;90237;-60
2023/10/17 16:46:28;;;;;;;;;;;;;;;;;;4982301;28;90818;-62
2023/10/17 16:48:54;;;;;;;;;;;;;;;;;;4982979;28;89817;-60
2023/10/17 16:51:20;;;;;;;;;;;;;;;;;;4983604;28;90080;-60
2023/10/17 16:53:45;;;;;;;;;;;;;;;;;;4982968;28;90575;-60
2023/10/17 16:56:12;;;;;;;;;;;;;;;;;;4983544;28;89530;-61
2023/10/17 16:58:38;;;;;;;;;;;;;;;;;;4984572;28;90797;-60
2023/10/17 17:01:09;;;;;;;;;;;;;;;;;;4981855;28;89587;-61
2023/10/17 17:03:34;;;;;;;;;;;;;;;;;;4985087;28;90715;-60
2023/10/17 17:06:01;;;;;;;;;;;;;;;;;;4983389;28;90594;-61
2023/10/17 17:08:26;;;;;;;;;;;;;;;;;;4984505;28;90251;-59
2023/10/17 17:10:52;;;;;;;;;;;;;;;;;;4984627;28;90322;-59
2023/10/17 17:13:19;;;;;;;;;;;;;;;;;;4983880;28;89079;-59
2023/10/17 17:15:45;;;;;;;;;;;;;;;;;;4984997;28;90266;-61
2023/10/17 17:18:10;;;;;;;;;;;;;;;;;;4984969;28;90191;-61
2023/10/17 17:20:35;;;;;;;;;;;;;;;;;;4985264;28;90067;-60
2023/10/17 17:23:01;;;;;;;;;;;;;;;;;;4987362;28;89447;-59
2023/10/17 17:25:26;;;;;;;;;;;;;;;;;;4983877;28;90908;-62
2023/10/17 17:27:52;;;;;;;;;;;;;;;;;;4982001;28;90296;-64
2023/10/17 17:30:19;;;;;;;;;;;;;;;;;;4984270;28;89006;-61
2023/10/17 17:32:44;;;;;;;;;;;;;;;;;;4983898;28;89741;-62
2023/10/17 17:35:11;;;;;;;;;;;;;;;;;;4984014;28;90700;-62
2023/10/17 17:37:36;;;;;;;;;;;;;;;;;;4984706;28;89288;-62
2023/10/17 17:40:01;;;;;;;;;;;;;;;;;;4983190;28;89611;-66
2023/10/17 17:42:26;;;;;;;;;;;;;;;;;;4985243;28;90648;-65
2023/10/17 17:44:52;;;;;;;;;;;;;;;;;;4986956;28;90567;-63
2023/10/17 17:47:17;;;;;;;;;;;;;;;;;;4984610;28;89179;-67
2023/10/17 17:49:45;;;;;;;;;;;;;;;;;;4983817;28;89419;-68
2023/10/17 17:52:10;;;;;;;;;;;;;;;;;;4985610;28;90748;-61
2023/10/17 17:54:35;;;;;;;;;;;;;;;;;;4984943;28;89618;-61
2023/10/17 17:57:01;;;;;;;;;;;;;;;;;;4984384;28;89893;-61
2023/10/17 17:59:26;;;;;;;;;;;;;;;;;;4984147;28;89597;-61
2023/10/17 18:01:51;;;;;;;;;;;;;;;;;;4982870;28;90293;-62
2023/10/17 18:04:17;;;;;;;;;;;;;;;;;;4984245;28;89688;-65
2023/10/17 18:06:42;;;;;;;;;;;;;;;;;;4986709;28;89705;-63
2023/10/17 18:09:07;;;;;;;;;;;;;;;;;;4984317;28;89314;-61
2023/10/17 18:11:39;;;;;;;;;;;;;;;;;;4984147;28;89983;-65
2023/10/17 18:14:05;;;;;;;;;;;;;;;;;;4981217;28;90227;-63
2023/10/17 18:16:33;;;;;;;;;;;;;;;;;;4983509;28;90852;-61
2023/10/17 18:19:04;;;;;;;;;;;;;;;;;;4980806;28;89635;-65
2023/10/17 18:21:32;;;;;;;;;;;;;;;;;;4980298;28;89135;-61
2023/10/17 18:23:57;;;;;;;;;;;;;;;;;;4982950;28;89760;-61
2023/10/17 18:26:23;;;;;;;;;;;;;;;;;;4982797;28;89678;-61
2023/10/17 18:28:48;;;;;;;;;;;;;;;;;;4985783;28;89820;-64
2023/10/17 18:31:15;;;;;;;;;;;;;;;;;;4983060;28;89455;-66
2023/10/17 18:33:41;;;;;;;;;;;;;;;;;;4982812;28;90715;-65
2023/10/17 18:36:08;;;;;;;;;;;;;;;;;;4982867;28;90497;-61
2023/10/17 18:38:34;;;;;;;;;;;;;;;;;;4983409;28;89492;-62
2023/10/17 18:40:59;;;;;;;;;;;;;;;;;;4982966;28;89363;-63
2023/10/17 18:43:27;;;;;;;;;;;;;;;;;;4983555;28;89110;-61
2023/10/17 18:45:52;;;;;;;;;;;;;;;;;;4982467;28;89740;-65
2023/10/17 18:48:17;;;;;;;;;;;;;;;;;;4984011;28;89191;-65
2023/10/17 18:50:42;;;;;;;;;;;;;;;;;;4967993;28;89715;-61
2023/10/17 18:53:07;;;;;;;;;;;;;;;;;;4982897;28;89947;-60
2023/10/17 18:55:33;;;;;;;;;;;;;;;;;;4984267;28;89659;-61